Douala International Airport

Airport
ICAO code: 
FKKD
IATA Code: 
DLA
Summary
ICAO Region: 
AFI
Territory: 
Location: 
Douala,
Serving: 
Douala
Elevation: 
33 ft
Coordinates: 
Aerial View: 
4° 1' 1.036" N, 9° 43' 8.022" E
Metar
Observation
FKKD 251300Z VRB02KT 9999 BKN016 FEW020CB 31/24 Q1014 NOSIG
Station
Douala Obs.
Date/Time
2022-05-25 13:00:00
Wind speed
02 kts
Lowest cloud amount
broken clouds
Temperature
31°C
Dew point
24°C
Humidity
66%
QNH
1014 hPa
Weather condition
n/a

Description

International airport serving Douala, Cameroon.

Climatology

Tropical Monsoon climate (Köppen climate classification Am) - monthly mean temperatures above 18°C in every month of the year and features wet and dry seasons. A tropical monsoon climate typically features less pronounced dry seasons than a tropical savanna climate and sees less variance in temperatures during the course of the year. The driest month nearly always occurs at or soon after the "winter" solstice.

Runways

Designator Length Width Surface Rops
12/30 2850 45 ASP Yes/Yes
Airport map: 
Aerial View: 

Accidents and Serious Incidents at or in the vicinity of FKKD

SKYbrary Partners:

Safety knowledge contributed by: